Time;durP1;ratioP1;P1;durP2;ratioP2;P2;SDS_P1;SDS_P2;PMS_P1;PMS_P2;Temp;Humidity;BMP_temperature;BMP_pressure;BME280_temperature;BME280_humidity;BME280_pressure;Samples;Min_cycle;Max_cycle;Signal;HPM_P1;HPM_P2
2024/03/18 00:00:48;;;;;;;5.30;1.80;;;;;;;1.02;95.39;100955.67;104983;1273;102730;-80
2024/03/18 00:03:35;;;;;;;3.60;1.70;;;;;;;1.02;95.72;100952.88;105091;1273;99265;-78
2024/03/18 00:06:20;;;;;;;3.60;1.90;;;;;;;1.04;95.86;100948.10;104936;1274;99836;-80
2024/03/18 00:09:07;;;;;;;7.70;2.10;;;;;;;1.04;95.85;100948.13;105026;1268;99342;-79
2024/03/18 00:11:52;;;;;;;5.40;1.80;;;;;;;1.05;95.86;100948.20;105024;1273;99794;-78
2024/03/18 00:14:38;;;;;;;4.60;2.00;;;;;;;1.05;96.08;100949.27;104978;1273;102717;-79
2024/03/18 00:17:23;;;;;;;3.20;1.90;;;;;;;1.07;96.07;100949.14;105050;1272;100175;-79
2024/03/18 00:20:12;;;;;;;3.30;1.60;;;;;;;1.07;96.14;100945.44;104968;1274;99419;-79
2024/03/18 00:22:57;;;;;;;7.50;2.40;;;;;;;1.03;95.99;100947.84;104899;1274;99317;-77
2024/03/18 00:25:43;;;;;;;6.00;2.00;;;;;;;1.01;95.94;100940.45;105011;1270;99266;-78
2024/03/18 00:28:31;;;;;;;2.60;1.80;;;;;;;0.99;96.12;100941.14;104833;1273;102852;-79
2024/03/18 00:31:16;;;;;;;3.50;2.20;;;;;;;0.98;96.22;100936.84;104954;1270;99870;-79
2024/03/18 00:34:02;;;;;;;5.30;2.00;;;;;;;0.95;96.37;100932.43;104823;1273;99432;-77
2024/03/18 00:36:47;;;;;;;5.30;2.00;;;;;;;0.95;96.25;100934.77;104762;1282;99312;-79
2024/03/18 00:39:32;;;;;;;3.50;2.00;;;;;;;0.93;96.31;100933.45;104716;1271;99799;-78
2024/03/18 00:42:18;;;;;;;6.00;1.80;;;;;;;0.92;96.21;100930.45;104699;1270;102718;-79
2024/03/18 00:45:04;;;;;;;7.00;1.80;;;;;;;0.90;96.45;100925.50;104692;1270;99905;-79
2024/03/18 00:47:49;;;;;;;3.70;1.70;;;;;;;0.92;96.69;100921.27;104807;1270;99370;-79
2024/03/18 00:50:35;;;;;;;4.20;2.70;;;;;;;0.94;96.63;100919.84;105068;1272;99258;-79
2024/03/18 00:53:21;;;;;;;4.50;2.30;;;;;;;0.95;96.64;100918.21;105442;1270;99854;-78
2024/03/18 00:56:07;;;;;;;4.10;1.90;;;;;;;0.95;96.58;100919.94;104870;1280;103225;-79
2024/03/18 00:58:52;;;;;;;3.90;1.90;;;;;;;0.95;96.72;100915.23;104736;1273;100388;-77
2024/03/18 01:01:38;;;;;;;4.50;1.50;;;;;;;0.94;96.59;100908.40;104667;1267;99319;-78
2024/03/18 01:04:23;;;;;;;4.10;2.00;;;;;;;0.93;96.60;100905.00;104789;1267;99316;-79
2024/03/18 01:07:08;;;;;;;5.20;2.20;;;;;;;0.94;96.57;100906.88;105077;1273;99325;-78
2024/03/18 01:09:54;;;;;;;5.90;2.20;;;;;;;0.92;96.55;100904.37;104989;1267;102716;-78
2024/03/18 01:12:40;;;;;;;3.00;1.90;;;;;;;0.93;96.75;100899.89;105100;1271;99814;-79
2024/03/18 01:15:25;;;;;;;3.00;1.70;;;;;;;0.94;96.73;100898.27;105142;1267;99352;-79
2024/03/18 01:18:11;;;;;;;4.30;1.80;;;;;;;0.93;96.70;100901.66;105232;1267;99321;-79
2024/03/18 01:20:57;;;;;;;4.10;2.00;;;;;;;0.93;96.76;100902.04;105144;1267;100001;-78
2024/03/18 01:23:43;;;;;;;3.00;1.50;;;;;;;0.94;96.68;100900.17;105197;1273;102738;-80
2024/03/18 01:26:28;;;;;;;4.30;2.10;;;;;;;0.97;96.74;100899.60;105095;1271;100363;-78
2024/03/18 01:29:14;;;;;;;3.60;2.00;;;;;;;0.98;96.65;100896.37;105012;1274;99458;-80
2024/03/18 01:31:59;;;;;;;3.80;1.80;;;;;;;0.99;96.50;100892.06;105065;1267;99255;-78
2024/03/18 01:34:45;;;;;;;3.30;1.70;;;;;;;0.98;96.49;100888.10;105152;1267;99329;-79
2024/03/18 01:37:30;;;;;;;4.00;1.70;;;;;;;0.96;96.47;100886.34;105032;1271;104511;-78
2024/03/18 01:40:17;;;;;;;6.20;1.80;;;;;;;0.95;96.59;100880.74;104858;1267;99259;-78
2024/03/18 01:43:02;;;;;;;4.00;1.60;;;;;;;0.96;96.60;100880.14;104701;1281;99333;-77
2024/03/18 01:45:48;;;;;;;8.90;1.90;;;;;;;0.96;96.53;100882.25;104820;1270;99772;-77
2024/03/18 01:48:33;;;;;;;5.70;2.20;;;;;;;0.96;96.48;100878.96;104657;1272;99782;-79
2024/03/18 01:51:18;;;;;;;3.00;2.10;;;;;;;0.95;96.52;100877.93;104809;1270;102719;-78
2024/03/18 01:54:05;;;;;;;2.80;1.70;;;;;;;0.95;96.54;100877.81;104708;1276;99457;-78
2024/03/18 01:56:50;;;;;;;2.30;1.90;;;;;;;0.91;96.69;100876.66;104839;1271;99867;-79
2024/03/18 01:59:36;;;;;;;5.60;1.70;;;;;;;0.88;96.98;100877.81;105062;1273;99324;-79
2024/03/18 02:02:23;;;;;;;7.90;2.20;;;;;;;0.87;97.36;100877.55;104856;1270;101076;-79
2024/03/18 02:05:09;;;;;;;5.10;1.90;;;;;;;0.83;97.55;100882.02;104790;1272;103996;-78
2024/03/18 02:07:55;;;;;;;4.80;2.00;;;;;;;0.81;97.79;100873.58;104755;1268;100401;-79
2024/03/18 02:10:41;;;;;;;5.00;2.10;;;;;;;0.78;97.92;100879.95;104837;1270;99410;-79
2024/03/18 02:13:26;;;;;;;3.60;2.00;;;;;;;0.75;98.18;100882.65;105290;1274;99262;-79
2024/03/18 02:16:11;;;;;;;5.00;1.80;;;;;;;0.77;98.66;100885.11;105116;1272;97949;-78
2024/03/18 02:18:57;;;;;;;5.60;2.00;;;;;;;0.80;98.88;100884.75;104996;1269;104029;-79
2024/03/18 02:21:42;;;;;;;3.50;1.90;;;;;;;0.81;98.95;100879.63;105198;1274;99936;-79
2024/03/18 02:24:28;;;;;;;7.80;2.10;;;;;;;0.78;99.01;100885.23;105116;1281;99352;-79
2024/03/18 02:27:14;;;;;;;3.10;2.10;;;;;;;0.73;99.16;100882.44;104910;1272;154117;-79
2024/03/18 02:29:59;;;;;;;4.40;1.50;;;;;;;0.70;99.36;100880.92;107664;1272;97114;-79
2024/03/18 02:32:45;;;;;;;3.80;2.30;;;;;;;0.68;99.72;100878.41;105839;1270;104738;-78
2024/03/18 02:35:30;;;;;;;8.30;2.50;;;;;;;0.66;99.82;100878.39;105153;1269;99960;-78
2024/03/18 02:38:16;;;;;;;3.20;2.30;;;;;;;0.61;99.92;100877.39;105108;1273;99349;-78
2024/03/18 02:41:01;;;;;;;10.00;3.10;;;;;;;0.57;100.00;100878.42;104851;1267;99274;-79
2024/03/18 02:43:46;;;;;;;5.20;2.80;;;;;;;0.54;100.00;100875.14;104864;1270;99327;-79
2024/03/18 02:46:32;;;;;;;5.40;2.30;;;;;;;0.52;100.00;100872.86;105117;1273;103900;-79
2024/03/18 02:49:18;;;;;;;5.30;2.00;;;;;;;0.49;100.00;100872.38;104958;1272;99358;-79
2024/03/18 02:52:03;;;;;;;4.30;2.90;;;;;;;0.48;100.00;100871.60;105064;1267;99286;-78
2024/03/18 02:54:48;;;;;;;4.50;3.10;;;;;;;0.48;100.00;100867.92;105106;1267;99429;-79
2024/03/18 02:57:34;;;;;;;5.40;2.80;;;;;;;0.49;100.00;100866.94;105070;1272;99133;-79
2024/03/18 03:00:20;;;;;;;5.00;2.70;;;;;;;0.48;100.00;100860.50;104896;1267;104156;-79
2024/03/18 03:03:06;;;;;;;3.80;2.50;;;;;;;0.47;100.00;100857.94;105111;1271;99935;-78
2024/03/18 03:05:51;;;;;;;3.70;2.60;;;;;;;0.48;100.00;100856.30;104665;1267;99452;-78
2024/03/18 03:08:36;;;;;;;5.40;2.90;;;;;;;0.48;100.00;100854.05;104785;1270;99463;-79
2024/03/18 03:11:22;;;;;;;4.20;3.00;;;;;;;0.47;100.00;100849.70;104964;1266;99842;-77
2024/03/18 03:14:08;;;;;;;5.10;2.50;;;;;;;0.46;100.00;100846.05;105312;1267;104179;-81
2024/03/18 03:16:55;;;;;;;5.60;2.80;;;;;;;0.46;100.00;100838.15;105299;1267;99866;-79
2024/03/18 03:19:42;;;;;;;4.30;2.70;;;;;;;0.46;100.00;100835.19;104863;1277;99643;-76
2024/03/18 03:22:28;;;;;;;6.90;2.50;;;;;;;0.47;100.00;100839.02;104838;1273;99882;-78
2024/03/18 03:25:14;;;;;;;4.30;2.50;;;;;;;0.48;100.00;100834.48;104827;1271;100025;-79
2024/03/18 03:27:59;;;;;;;4.50;2.60;;;;;;;0.50;100.00;100835.20;105392;1267;103975;-79
2024/03/18 03:30:44;;;;;;;7.50;2.50;;;;;;;0.53;100.00;100834.99;104926;1271;99870;-79
2024/03/18 03:33:30;;;;;;;4.30;2.50;;;;;;;0.53;100.00;100834.66;104830;1267;99453;-79
2024/03/18 03:36:15;;;;;;;3.00;2.40;;;;;;;0.52;100.00;100833.28;104793;1268;99731;-78
2024/03/18 03:39:01;;;;;;;6.30;2.60;;;;;;;0.55;100.00;100834.10;105073;1270;99320;-80
2024/03/18 03:41:47;;;;;;;5.20;2.40;;;;;;;0.57;100.00;100825.52;105067;1271;103986;-80
2024/03/18 03:44:32;;;;;;;3.70;3.00;;;;;;;0.58;100.00;100823.52;105122;1267;99347;-78
2024/03/18 03:47:17;;;;;;;4.20;2.60;;;;;;;0.60;100.00;100825.11;104747;1272;99326;-78
2024/03/18 03:50:04;;;;;;;4.80;2.60;;;;;;;0.60;100.00;100821.11;104875;1271;99189;-79
2024/03/18 03:52:49;;;;;;;3.40;2.50;;;;;;;0.60;100.00;100820.70;106139;1271;99852;-80
2024/03/18 03:55:38;;;;;;;2.90;2.40;;;;;;;0.61;100.00;100822.39;105075;1270;103993;-78
2024/03/18 03:58:26;;;;;;;7.40;2.90;;;;;;;0.61;100.00;100821.52;105681;1267;100376;-79
2024/03/18 04:01:12;;;;;;;7.60;3.00;;;;;;;0.62;100.00;100818.79;105052;1267;99336;-79
2024/03/18 04:03:57;;;;;;;3.90;2.60;;;;;;;0.63;100.00;100821.90;105239;1270;99342;-80
2024/03/18 04:06:43;;;;;;;3.90;2.90;;;;;;;0.64;100.00;100820.41;104963;1267;100990;-77
2024/03/18 04:09:28;;;;;;;5.40;2.50;;;;;;;0.64;100.00;100822.04;105011;1270;103982;-78
2024/03/18 04:12:14;;;;;;;9.00;2.60;;;;;;;0.65;100.00;100818.63;105079;1273;99371;-81
2024/03/18 04:14:59;;;;;;;4.00;2.00;;;;;;;0.64;100.00;100817.09;105259;1267;99390;-79
2024/03/18 04:17:45;;;;;;;4.90;2.90;;;;;;;0.62;100.00;100816.02;105307;1267;99574;-77
2024/03/18 04:20:34;;;;;;;6.80;3.30;;;;;;;0.62;100.00;100818.80;105051;1267;99070;-79
2024/03/18 04:23:20;;;;;;;6.80;2.30;;;;;;;0.63;100.00;100817.17;105172;1271;102724;-80
2024/03/18 04:26:06;;;;;;;5.40;2.50;;;;;;;0.64;100.00;100817.95;105021;1273;99517;-79
2024/03/18 04:28:51;;;;;;;6.00;2.70;;;;;;;0.66;100.00;100817.45;105126;1273;99442;-80
2024/03/18 04:31:37;;;;;;;5.10;2.70;;;;;;;0.66;100.00;100817.10;105016;1267;99350;-80
2024/03/18 04:34:24;;;;;;;4.00;2.80;;;;;;;0.67;100.00;100822.77;105089;1273;101028;-79
2024/03/18 04:37:10;;;;;;;3.80;2.10;;;;;;;0.68;100.00;100825.36;104953;1270;102863;-78
2024/03/18 04:39:55;;;;;;;4.70;2.40;;;;;;;0.68;100.00;100824.66;105146;1270;99348;-78
2024/03/18 04:42:42;;;;;;;9.20;2.90;;;;;;;0.71;100.00;100828.50;104848;1267;99240;-78
2024/03/18 04:45:27;;;;;;;6.30;3.10;;;;;;;0.71;100.00;100830.01;105090;1267;99328;-79
2024/03/18 04:48:13;;;;;;;5.40;2.20;;;;;;;0.71;100.00;100833.04;105089;1270;100174;-79
2024/03/18 04:50:58;;;;;;;3.50;2.60;;;;;;;0.73;100.00;100837.66;104847;1268;103966;-79
2024/03/18 04:53:44;;;;;;;5.10;2.50;;;;;;;0.74;100.00;100838.80;104919;1268;99375;-79
2024/03/18 04:56:31;;;;;;;6.20;3.00;;;;;;;0.75;100.00;100836.23;105009;1270;100155;-79
2024/03/18 04:59:17;;;;;;;8.30;2.90;;;;;;;0.74;100.00;100839.64;104799;1273;99284;-78
2024/03/18 05:02:04;;;;;;;4.90;2.50;;;;;;;0.74;100.00;100838.66;104819;1270;99212;-78
2024/03/18 05:04:51;;;;;;;8.10;2.80;;;;;;;0.72;100.00;100837.52;104710;1273;102701;-79
2024/03/18 05:07:36;;;;;;;7.10;3.10;;;;;;;0.72;100.00;100836.45;104569;1274;100875;-79
2024/03/18 05:10:21;;;;;;;8.90;3.60;;;;;;;0.72;100.00;100833.46;104754;1273;99339;-78
2024/03/18 05:13:07;;;;;;;6.00;2.80;;;;;;;0.72;100.00;100837.20;104830;1267;100626;-79
2024/03/18 05:15:52;;;;;;;4.50;2.80;;;;;;;0.72;100.00;100837.19;104710;1273;99285;-79
2024/03/18 05:18:38;;;;;;;6.10;3.10;;;;;;;0.76;100.00;100839.70;104676;1268;103454;-78
2024/03/18 05:21:23;;;;;;;6.80;3.20;;;;;;;0.80;100.00;100837.48;104744;1273;99354;-78
2024/03/18 05:24:09;;;;;;;5.70;2.30;;;;;;;0.82;100.00;100837.48;104626;1268;99358;-78
2024/03/18 05:26:54;;;;;;;5.60;3.00;;;;;;;0.83;100.00;100838.14;105095;1268;99309;-79
2024/03/18 05:29:40;;;;;;;6.00;2.90;;;;;;;0.81;100.00;100836.30;105026;1271;99880;-78
2024/03/18 05:32:25;;;;;;;3.60;2.20;;;;;;;0.81;100.00;100832.45;105541;1268;102735;-79
2024/03/18 05:35:10;;;;;;;4.60;2.50;;;;;;;0.83;100.00;100830.40;104912;1273;100439;-79
2024/03/18 05:37:56;;;;;;;6.70;2.10;;;;;;;0.84;100.00;100832.90;104969;1270;99355;-79
2024/03/18 05:40:41;;;;;;;3.40;2.00;;;;;;;0.87;100.00;100833.93;105087;1268;99448;-79
2024/03/18 05:43:27;;;;;;;4.40;2.10;;;;;;;0.88;100.00;100836.46;104742;1268;99801;-79
2024/03/18 05:46:12;;;;;;;4.40;2.00;;;;;;;0.88;100.00;100838.03;105117;1273;102779;-79
2024/03/18 05:48:57;;;;;;;8.30;2.50;;;;;;;0.90;100.00;100839.14;105003;1273;100004;-80
2024/03/18 05:51:44;;;;;;;6.00;1.90;;;;;;;0.91;100.00;100840.80;104791;1272;99439;-78
2024/03/18 05:54:29;;;;;;;5.60;2.10;;;;;;;0.92;100.00;100837.94;104735;1268;99334;-78
2024/03/18 05:57:14;;;;;;;6.60;2.30;;;;;;;0.92;100.00;100839.48;104543;1268;97677;-79
2024/03/18 06:00:00;;;;;;;5.30;1.40;;;;;;;0.95;100.00;100837.52;104943;1269;113298;-79
2024/03/18 06:02:45;;;;;;;5.00;2.30;;;;;;;0.96;100.00;100839.86;105036;1273;99352;-78
2024/03/18 06:05:31;;;;;;;4.60;2.20;;;;;;;0.96;100.00;100840.05;104989;1273;99466;-79
2024/03/18 06:08:17;;;;;;;6.20;2.30;;;;;;;0.96;100.00;100840.38;104901;1268;99346;-78
2024/03/18 06:11:03;;;;;;;5.20;2.20;;;;;;;0.96;100.00;100837.10;104612;1272;99874;-79
2024/03/18 06:13:49;;;;;;;7.50;2.40;;;;;;;0.96;100.00;100841.66;104843;1268;102748;-80
2024/03/18 06:16:36;;;;;;;3.20;2.10;;;;;;;0.96;100.00;100838.83;105019;1270;100128;-78
2024/03/18 06:19:21;;;;;;;3.30;2.30;;;;;;;0.94;100.00;100835.30;104879;1268;99283;-79
2024/03/18 06:22:10;;;;;;;8.50;2.40;;;;;;;0.94;100.00;100835.46;105015;1273;99383;-79
2024/03/18 06:27:59;;;;;;;4.00;2.20;;;;;;;0.96;100.00;100831.99;104981;1268;103393;-79
2024/03/18 06:30:47;;;;;;;6.60;2.50;;;;;;;0.98;100.00;100836.55;104798;1268;100549;-78
2024/03/18 06:33:33;;;;;;;6.60;2.70;;;;;;;1.02;100.00;100836.27;104887;1272;99392;-78
2024/03/18 06:36:19;;;;;;;4.40;2.40;;;;;;;1.04;100.00;100837.02;104929;1268;99356;-80
2024/03/18 06:39:04;;;;;;;4.00;2.10;;;;;;;1.04;100.00;100831.35;105020;1268;99276;-79
2024/03/18 06:41:49;;;;;;;8.30;2.40;;;;;;;1.07;100.00;100830.23;105027;1271;102716;-78
2024/03/18 06:44:42;;;;;;;3.40;2.00;;;;;;;1.13;100.00;100828.73;105451;1270;99856;-78
2024/03/18 06:47:28;;;;;;;3.30;2.40;;;;;;;1.16;100.00;100825.66;106990;1269;99279;-80
2024/03/18 06:50:13;;;;;;;3.80;2.20;;;;;;;1.16;100.00;100827.20;105570;1273;100116;-78
2024/03/18 06:52:58;;;;;;;5.40;2.40;;;;;;;1.15;100.00;100829.02;104845;1272;99872;-78
2024/03/18 06:55:44;;;;;;;5.40;2.50;;;;;;;1.16;100.00;100830.21;104901;1273;103994;-79
2024/03/18 06:58:29;;;;;;;4.30;2.60;;;;;;;1.18;100.00;100833.19;104929;1272;99752;-78
2024/03/18 07:01:15;;;;;;;5.00;2.40;;;;;;;1.21;100.00;100836.66;104542;1273;99390;-79
2024/03/18 07:04:00;;;;;;;5.20;2.50;;;;;;;1.24;100.00;100838.36;104776;1273;99355;-77
2024/03/18 07:06:45;;;;;;;5.90;2.30;;;;;;;1.24;100.00;100835.18;104765;1273;99808;-79
2024/03/18 07:09:31;;;;;;;4.40;2.60;;;;;;;1.23;100.00;100837.37;104758;1272;104046;-78
2024/03/18 07:12:18;;;;;;;10.80;4.00;;;;;;;1.24;100.00;100833.55;104868;1273;99787;-77
2024/03/18 07:15:12;;;;;;;8.00;3.00;;;;;;;1.27;100.00;100833.89;105155;1268;99221;-80
2024/03/18 07:17:57;;;;;;;5.90;3.30;;;;;;;1.29;100.00;100835.66;104921;1270;99415;-79
2024/03/18 07:20:42;;;;;;;5.20;3.30;;;;;;;1.33;100.00;100837.27;105014;1276;99707;-78
2024/03/18 07:23:28;;;;;;;4.40;2.80;;;;;;;1.37;100.00;100837.80;104890;1268;102697;-77
2024/03/18 07:26:14;;;;;;;8.40;3.60;;;;;;;1.42;100.00;100840.59;104799;1268;99916;-78
2024/03/18 07:28:59;;;;;;;4.80;2.90;;;;;;;1.42;100.00;100840.77;104972;1268;99169;-79
2024/03/18 07:31:46;;;;;;;4.50;3.30;;;;;;;1.45;100.00;100840.89;105007;1273;99367;-78
2024/03/18 07:34:31;;;;;;;5.90;3.10;;;;;;;1.49;100.00;100841.73;105887;1273;99326;-77
2024/03/18 07:37:21;;;;;;;5.90;3.10;;;;;;;1.51;100.00;100841.60;105165;1272;102720;-80
2024/03/18 07:40:11;;;;;;;4.60;2.80;;;;;;;1.53;100.00;100843.34;105195;1272;100197;-78
2024/03/18 07:42:56;;;;;;;5.50;2.90;;;;;;;1.56;100.00;100840.70;105070;1273;99169;-78
2024/03/18 07:45:42;;;;;;;5.20;3.00;;;;;;;1.57;100.00;100840.27;105028;1272;99366;-79
2024/03/18 07:48:27;;;;;;;4.30;2.90;;;;;;;1.57;100.00;100840.25;105020;1268;100320;-79
2024/03/18 07:51:12;;;;;;;3.90;3.00;;;;;;;1.61;100.00;100839.61;105214;1270;102746;-78
2024/03/18 07:53:58;;;;;;;5.30;2.90;;;;;;;1.66;100.00;100845.70;105095;1268;100876;-78
2024/03/18 07:56:44;;;;;;;4.30;3.20;;;;;;;1.71;100.00;100844.36;105035;1267;99985;-79
2024/03/18 07:59:29;;;;;;;3.90;3.20;;;;;;;1.78;100.00;100844.51;105439;1267;99463;-79
2024/03/18 08:02:14;;;;;;;7.00;3.90;;;;;;;1.82;100.00;100843.80;105612;1267;99215;-79
2024/03/18 08:05:00;;;;;;;7.80;4.00;;;;;;;1.87;100.00;100847.46;105924;1267;102713;-80
2024/03/18 08:07:46;;;;;;;8.30;3.60;;;;;;;1.91;100.00;100844.52;105835;1273;100051;-79
2024/03/18 08:10:31;;;;;;;6.40;3.10;;;;;;;1.94;100.00;100845.10;105572;1271;99145;-78
2024/03/18 08:13:17;;;;;;;4.60;2.70;;;;;;;1.99;100.00;100842.45;105577;1270;99232;-80
2024/03/18 08:16:02;;;;;;;8.00;3.10;;;;;;;2.00;100.00;100839.32;105606;1271;99083;-79
2024/03/18 08:18:48;;;;;;;7.50;3.30;;;;;;;2.04;100.00;100839.40;105999;1267;102722;-81
2024/03/18 08:21:34;;;;;;;5.60;3.50;;;;;;;2.09;100.00;100836.67;105738;1268;101191;-83
2024/03/18 08:24:19;;;;;;;8.10;3.90;;;;;;;2.18;100.00;100840.11;105594;1267;99397;-82
2024/03/18 08:27:05;;;;;;;6.20;2.90;;;;;;;2.26;100.00;100842.09;105632;1272;99343;-82
2024/03/18 08:29:50;;;;;;;4.90;3.60;;;;;;;2.32;100.00;100838.20;105453;1270;101174;-79
2024/03/18 08:32:36;;;;;;;4.80;3.40;;;;;;;2.36;100.00;100838.55;105776;1267;103200;-81
2024/03/18 08:35:22;;;;;;;6.80;3.50;;;;;;;2.38;100.00;100841.60;105696;1267;99396;-82
2024/03/18 08:38:07;;;;;;;5.50;3.40;;;;;;;2.38;100.00;100839.30;105757;1267;99374;-81
2024/03/18 08:40:54;;;;;;;6.80;3.90;;;;;;;2.41;100.00;100836.60;105814;1267;99344;-81
2024/03/18 08:43:40;;;;;;;5.60;3.20;;;;;;;2.44;100.00;100839.17;105756;1267;99428;-80
2024/03/18 08:46:25;;;;;;;4.20;3.10;;;;;;;2.46;100.00;100840.41;106014;1271;103986;-79
2024/03/18 08:49:13;;;;;;;5.70;3.60;;;;;;;2.48;100.00;100843.17;105711;1267;99708;-81
2024/03/18 08:51:59;;;;;;;5.80;3.20;;;;;;;2.48;100.00;100844.27;105904;1268;99339;-80
2024/03/18 08:54:44;;;;;;;5.20;3.70;;;;;;;2.44;100.00;100843.00;105996;1273;99320;-80
2024/03/18 08:57:30;;;;;;;6.90;3.80;;;;;;;2.40;100.00;100844.30;105857;1273;99761;-81
2024/03/18 09:00:15;;;;;;;5.10;3.90;;;;;;;2.39;100.00;100844.31;105701;1267;103341;-83
2024/03/18 09:03:03;;;;;;;5.00;3.10;;;;;;;2.39;100.00;100841.20;105525;1267;100329;-82
2024/03/18 09:05:56;;;;;;;6.20;4.10;;;;;;;2.37;100.00;100841.33;105432;1268;99387;-83
2024/03/18 09:08:45;;;;;;;7.00;3.90;;;;;;;2.37;100.00;100841.83;105486;1268;99345;-82
2024/03/18 09:11:30;;;;;;;6.40;4.40;;;;;;;2.39;100.00;100841.14;105928;1272;99394;-81
2024/03/18 09:14:16;;;;;;;9.50;5.30;;;;;;;2.39;100.00;100842.06;104737;1268;104097;-77
2024/03/18 09:17:04;;;;;;;8.40;5.10;;;;;;;2.39;100.00;100844.55;104769;1271;100009;-77
2024/03/18 09:19:49;;;;;;;9.40;5.10;;;;;;;2.38;100.00;100846.55;104851;1273;99899;-77
2024/03/18 09:22:37;;;;;;;9.90;5.10;;;;;;;2.39;100.00;100843.28;104713;1268;99782;-77
2024/03/18 09:25:24;;;;;;;4.60;3.90;;;;;;;2.39;100.00;100845.71;104650;1268;99367;-80
2024/03/18 09:28:10;;;;;;;9.50;3.90;;;;;;;2.39;100.00;100846.97;104743;1270;103404;-82
2024/03/18 09:31:00;;;;;;;7.40;4.70;;;;;;;2.36;100.00;100845.62;105870;1271;100428;-81
2024/03/18 09:33:46;;;;;;;13.10;4.60;;;;;;;2.35;100.00;100844.27;105811;1268;99271;-80
2024/03/18 09:36:33;;;;;;;7.00;4.50;;;;;;;2.35;100.00;100841.98;105699;1273;99329;-83
2024/03/18 09:39:19;;;;;;;7.70;4.40;;;;;;;2.32;100.00;100842.41;105247;1268;99311;-83
2024/03/18 09:42:05;;;;;;;5.50;4.40;;;;;;;2.29;100.00;100842.14;105461;1268;102891;-82
2024/03/18 09:44:51;;;;;;;5.40;4.20;;;;;;;2.27;100.00;100846.55;105554;1267;100620;-82
2024/03/18 09:47:37;;;;;;;6.80;4.70;;;;;;;2.24;100.00;100846.08;105121;1275;99384;-83
2024/03/18 09:50:22;;;;;;;7.30;4.70;;;;;;;2.23;100.00;100847.24;105355;1276;97585;-83
2024/03/18 09:53:12;;;;;;;8.10;5.20;;;;;;;2.21;100.00;100850.20;105497;1268;99268;-82
2024/03/18 09:55:58;;;;;;;5.50;3.90;;;;;;;2.22;100.00;100849.59;105779;1270;103403;-83
2024/03/18 09:58:45;;;;;;;9.90;5.30;;;;;;;2.24;100.00;100848.41;105495;1268;100784;-83
2024/03/18 10:01:32;;;;;;;5.90;4.30;;;;;;;2.23;100.00;100844.74;105394;1268;99492;-81
2024/03/18 10:04:19;;;;;;;6.00;4.90;;;;;;;2.24;100.00;100845.77;105485;1268;99439;-83
2024/03/18 10:07:07;;;;;;;7.40;4.90;;;;;;;2.26;100.00;100845.55;105490;1273;99449;-81
2024/03/18 10:09:52;;;;;;;7.50;5.30;;;;;;;2.28;100.00;100846.08;105435;1268;102728;-80
2024/03/18 10:12:39;;;;;;;8.80;6.00;;;;;;;2.29;100.00;100844.64;105648;1270;99389;-81
2024/03/18 10:15:27;;;;;;;9.40;5.20;;;;;;;2.30;100.00;100842.65;105321;1276;99352;-80
2024/03/18 10:18:13;;;;;;;8.20;5.50;;;;;;;2.30;100.00;100842.98;105443;1268;99224;-82
2024/03/18 10:21:00;;;;;;;8.40;5.20;;;;;;;2.30;100.00;100841.50;105349;1268;99470;-81
2024/03/18 10:23:53;;;;;;;7.90;4.90;;;;;;;2.33;100.00;100844.11;104947;1268;102758;-81
2024/03/18 10:26:39;;;;;;;5.40;4.50;;;;;;;2.35;100.00;100846.74;105581;1268;107903;-84
2024/03/18 10:29:24;;;;;;;7.10;5.10;;;;;;;2.37;100.00;100847.36;105199;1271;99285;-83
2024/03/18 10:32:24;;;;;;;7.00;5.00;;;;;;;2.37;100.00;100846.98;105445;1268;99324;-82
2024/03/18 10:35:25;;;;;;;8.30;5.60;;;;;;;2.41;100.00;100845.98;105422;1272;99381;-84
2024/03/18 10:38:30;;;;;;;8.60;5.80;;;;;;;2.46;100.00;100841.98;105323;1274;102753;-83
2024/03/18 10:41:18;;;;;;;7.60;5.40;;;;;;;2.52;100.00;100843.36;105557;1268;100366;-82
2024/03/18 10:44:24;;;;;;;8.40;5.70;;;;;;;2.58;100.00;100848.55;105746;1268;99319;-83
2024/03/18 10:47:11;;;;;;;8.10;5.50;;;;;;;2.61;100.00;100848.11;105519;1268;99457;-81
2024/03/18 10:49:58;;;;;;;11.70;6.40;;;;;;;2.62;100.00;100849.90;105398;1276;99880;-80
2024/03/18 10:52:44;;;;;;;9.10;5.30;;;;;;;2.65;100.00;100850.95;105560;1267;104006;-84
2024/03/18 10:55:33;;;;;;;14.10;5.70;;;;;;;2.67;100.00;100849.85;105424;1270;99342;-82
2024/03/18 10:58:23;;;;;;;9.50;6.00;;;;;;;2.70;100.00;100846.95;105460;1271;99469;-82
2024/03/18 11:01:09;;;;;;;8.20;5.40;;;;;;;2.71;100.00;100845.09;105530;1270;99246;-83
2024/03/18 11:03:55;;;;;;;7.90;5.00;;;;;;;2.72;100.00;100844.81;105614;1268;97559;-81
2024/03/18 11:06:49;;;;;;;6.70;5.10;;;;;;;2.73;100.00;100844.91;105334;1268;103954;-83
2024/03/18 11:09:40;;;;;;;7.60;4.80;;;;;;;2.75;100.00;100842.77;104881;1268;99351;-86
2024/03/18 11:12:33;;;;;;;9.90;5.10;;;;;;;2.78;100.00;100839.25;105621;1268;99126;-87
2024/03/18 11:15:19;;;;;;;7.30;5.20;;;;;;;2.78;100.00;100839.89;105682;1268;99375;-82
2024/03/18 11:18:06;;;;;;;8.30;4.80;;;;;;;2.82;100.00;100841.33;105502;1268;99301;-83
2024/03/18 11:20:55;;;;;;;7.70;4.80;;;;;;;2.85;100.00;100842.97;105424;1268;102763;-81
2024/03/18 11:23:56;;;;;;;6.60;4.70;;;;;;;2.87;100.00;100843.70;105855;1268;99502;-87
2024/03/18 11:26:42;;;;;;;6.80;4.70;;;;;;;2.86;100.00;100846.12;105528;1268;99329;-84
2024/03/18 11:29:38;;;;;;;6.50;4.50;;;;;;;2.83;100.00;100846.67;105546;1272;99159;-83
2024/03/18 11:32:26;;;;;;;7.00;4.90;;;;;;;2.82;100.00;100848.77;105528;1269;99365;-78
2024/03/18 11:35:11;;;;;;;6.50;4.60;;;;;;;2.82;100.00;100845.34;105212;1268;103999;-77
2024/03/18 11:37:57;;;;;;;6.30;4.40;;;;;;;2.85;100.00;100848.31;105287;1269;99185;-78
2024/03/18 11:40:42;;;;;;;9.80;5.40;;;;;;;2.84;100.00;100845.89;104858;1268;99263;-75
2024/03/18 11:43:30;;;;;;;7.70;5.50;;;;;;;2.84;100.00;100844.33;104759;1273;99349;-76
2024/03/18 11:46:17;;;;;;;5.60;4.80;;;;;;;2.85;100.00;100844.75;105027;1272;99141;-84
2024/03/18 11:49:09;;;;;;;6.10;4.70;;;;;;;2.84;100.00;100843.07;105241;1273;104057;-85
2024/03/18 11:51:56;;;;;;;6.60;5.00;;;;;;;2.83;100.00;100843.55;105081;1268;100195;-85
2024/03/18 11:54:42;;;;;;;9.00;5.60;;;;;;;2.84;100.00;100841.87;105318;1273;99506;-84
2024/03/18 11:57:28;;;;;;;7.50;4.90;;;;;;;2.86;100.00;100837.26;105390;1268;99234;-77
2024/03/18 12:00:34;;;;;;;8.40;5.10;;;;;;;2.86;100.00;100835.54;104824;1274;99774;-80
2024/03/18 12:03:21;;;;;;;8.80;4.90;;;;;;;2.85;100.00;100833.63;105978;1273;102780;-90
2024/03/18 12:06:07;;;;;;;6.40;4.50;;;;;;;2.88;100.00;100834.07;105570;1268;100509;-78
2024/03/18 12:08:53;;;;;;;6.60;5.00;;;;;;;2.94;100.00;100832.90;105200;1270;99554;-78
2024/03/18 12:11:39;;;;;;;7.50;5.20;;;;;;;2.99;100.00;100825.70;105015;1268;99335;-77
2024/03/18 12:14:25;;;;;;;6.80;4.10;;;;;;;3.02;100.00;100824.92;104978;1268;99246;-77
2024/03/18 12:17:11;;;;;;;6.30;4.00;;;;;;;3.04;100.00;100825.28;104939;1268;102720;-83
2024/03/18 12:20:01;;;;;;;5.60;4.10;;;;;;;3.06;100.00;100825.27;105291;1268;100469;-84
2024/03/18 12:22:57;;;;;;;6.30;3.80;;;;;;;3.11;100.00;100827.32;105254;1276;99253;-83
2024/03/18 12:28:48;;;;;;;5.70;3.50;;;;;;;3.19;100.00;100827.15;105876;1271;99600;-82
2024/03/18 12:31:36;;;;;;;5.00;3.00;;;;;;;3.21;100.00;100827.73;105533;1268;104977;-84
2024/03/18 12:34:23;;;;;;;5.20;3.10;;;;;;;3.23;100.00;100824.48;105275;1273;101314;-82
2024/03/18 12:37:15;;;;;;;5.10;3.70;;;;;;;3.29;100.00;100822.54;105508;1268;99412;-77
2024/03/18 12:40:04;;;;;;;3.40;2.60;;;;;;;3.38;100.00;100826.36;105293;1268;99374;-78
2024/03/18 12:42:52;;;;;;;4.60;3.30;;;;;;;3.44;100.00;100821.23;106821;1270;96998;-78
2024/03/18 12:45:39;;;;;;;3.00;2.60;;;;;;;3.47;100.00;100823.05;104799;1274;102705;-77
2024/03/18 12:48:24;;;;;;;3.10;2.40;;;;;;;3.47;100.00;100822.33;105098;1268;99350;-77
2024/03/18 12:51:17;;;;;;;2.80;2.50;;;;;;;3.48;100.00;100822.23;104733;1268;99352;-78